ADDS METAR Data

Data at: 0503 UTC 20 Apr 2018

METAR for:KBGR (Bangor Intl Arpt, ME, US)
Text:KBGR 200453Z 32008KT 10SM FEW039 BKN070 OVC120 03/00 A2972 RMK AO2 SLP064 T00330000 400940033
Temperature: 3.3°C ( 38°F)
Dewpoint: 0.0°C ( 32°F) [RH = 79%]
Pressure (altimeter):29.72 inches Hg (1006.5 mb) [Sea level pressure: 1006.4 mb]
Winds:from the NW (320 degrees) at 9 MPH (8 knots; 4.1 m/s)
Visibility:10 or more sm (16+ km)
Ceiling:7000 feet AGL
Clouds: few clouds at 3900 feet AGL, broken clouds at 7000 feet AGL, overcast cloud deck at 12000 feet AGL